createdAt,value
2023-04-20T00:00:50.968Z,103577.16
2023-04-20T00:03:21.758Z,103576.25
2023-04-20T00:05:50.534Z,103573.63
2023-04-20T00:08:18.615Z,103566.69
2023-04-20T00:10:46.872Z,103566.69
2023-04-20T00:13:14.861Z,103568.41
2023-04-20T00:15:42.834Z,103564.91
2023-04-20T00:18:10.739Z,103561.44
2023-04-20T00:20:40.101Z,103559.69
2023-04-20T00:23:08.392Z,103563.16
2023-04-20T00:25:36.511Z,103549.34
2023-04-20T00:28:05.103Z,103559.66
2023-04-20T00:30:33.132Z,103547.63
2023-04-20T00:33:01.561Z,103554.50
2023-04-20T00:35:29.737Z,103556.22
2023-04-20T00:37:58.994Z,103553.63
2023-04-20T00:40:26.909Z,103549.31
2023-04-20T00:42:54.804Z,103558.72
2023-04-20T00:45:22.776Z,103569.84
2023-04-20T00:47:51.542Z,103561.22
2023-04-20T00:50:19.600Z,103555.19
2023-04-20T00:52:49.010Z,103559.44
2023-04-20T00:55:18.448Z,103554.25
2023-04-20T00:57:46.553Z,103559.38
2023-04-20T01:00:15.120Z,103551.63
2023-04-20T01:02:43.200Z,103554.19
2023-04-20T01:05:11.690Z,103546.41
2023-04-20T01:07:39.628Z,103555.88
2023-04-20T01:10:09.475Z,103549.81
2023-04-20T01:12:38.712Z,103548.94
2023-04-20T01:15:08.184Z,103551.50
2023-04-20T01:17:38.150Z,103553.22
2023-04-20T01:20:09.014Z,103545.44
2023-04-20T01:22:45.932Z,103551.47
2023-04-20T01:25:14.060Z,103548.84
2023-04-20T01:27:42.031Z,103548.84
2023-04-20T01:30:11.387Z,103547.94
2023-04-20T01:32:39.919Z,103547.94
2023-04-20T01:35:10.078Z,103550.53
2023-04-20T01:37:38.122Z,103543.59
2023-04-20T01:40:10.781Z,103546.97
2023-04-20T01:42:38.865Z,103547.81
2023-04-20T01:45:08.158Z,103556.47
2023-04-20T01:47:36.300Z,103551.28
2023-04-20T01:50:04.277Z,103551.25
2023-04-20T01:52:32.092Z,103552.06
2023-04-20T01:55:02.964Z,103543.50
2023-04-20T01:57:32.246Z,103555.50
2023-04-20T02:00:00.131Z,103554.63
2023-04-20T02:02:28.206Z,103552.91
2023-04-20T02:04:56.324Z,103547.69
2023-04-20T02:07:24.215Z,103539.06
2023-04-20T02:09:52.093Z,103534.72
2023-04-20T02:12:20.016Z,103535.56
2023-04-20T02:14:49.389Z,103538.16
2023-04-20T02:17:17.299Z,103531.19
2023-04-20T02:19:45.362Z,103523.41
2023-04-20T02:22:13.272Z,103518.22
2023-04-20T02:24:41.493Z,103522.53
2023-04-20T02:27:09.312Z,103525.09
2023-04-20T02:31:49.953Z,103524.22
2023-04-20T02:34:17.914Z,103512.16
2023-04-20T02:36:46.312Z,103515.56
2023-04-20T02:39:14.249Z,103518.94
2023-04-20T02:41:42.120Z,103519.84
2023-04-20T02:44:10.095Z,103521.59
2023-04-20T02:46:38.016Z,103515.56
2023-04-20T02:49:09.473Z,103510.41
2023-04-20T02:51:37.315Z,103521.53
2023-04-20T02:54:05.638Z,103524.97
2023-04-20T02:56:33.557Z,103518.84
2023-04-20T02:59:01.542Z,103510.25
2023-04-20T03:01:30.002Z,103506.81
2023-04-20T03:03:57.995Z,103505.13
2023-04-20T03:06:27.960Z,103506.84
2023-04-20T03:08:56.451Z,103505.13
2023-04-20T03:11:24.368Z,103511.97
2023-04-20T03:13:52.179Z,103508.53
2023-04-20T03:16:20.731Z,103503.38
2023-04-20T03:18:48.636Z,103502.56
2023-04-20T03:21:16.548Z,103505.16
2023-04-20T03:23:45.806Z,103501.69
2023-04-20T03:26:14.050Z,103504.22
2023-04-20T03:28:45.620Z,103500.75
2023-04-20T03:31:13.534Z,103502.50
2023-04-20T03:33:41.484Z,103510.19
2023-04-20T03:36:09.827Z,103505.06
2023-04-20T03:38:37.759Z,103511.03
2023-04-20T03:41:08.594Z,103507.63
2023-04-20T03:43:36.457Z,103508.38
2023-04-20T03:46:04.438Z,103510.97
2023-04-20T03:48:32.358Z,103513.56
2023-04-20T03:51:00.184Z,103509.31
2023-04-20T03:53:29.106Z,103507.53
2023-04-20T03:55:57.104Z,103505.81
2023-04-20T03:58:26.516Z,103515.38
2023-04-20T04:00:54.392Z,103505.97
2023-04-20T04:03:22.489Z,103506.00
2023-04-20T04:05:50.595Z,103502.66
2023-04-20T04:08:18.617Z,103501.03
2023-04-20T04:10:46.548Z,103503.72
2023-04-20T04:13:14.405Z,103506.41
2023-04-20T04:15:43.700Z,103500.59
2023-04-20T04:18:11.576Z,103502.22
2023-04-20T04:20:39.511Z,103503.91
2023-04-20T04:23:07.869Z,103496.22
2023-04-20T04:25:38.858Z,103496.31
2023-04-20T04:28:07.389Z,103497.22
2023-04-20T04:30:35.416Z,103499.94
2023-04-20T04:33:04.978Z,103489.88
2023-04-20T04:35:34.430Z,103490.59
2023-04-20T04:38:02.330Z,103482.72
2023-04-20T04:40:30.341Z,103489.41
2023-04-20T04:42:58.544Z,103483.56
2023-04-20T04:45:26.406Z,103474.50
2023-04-20T04:47:57.242Z,103473.41
2023-04-20T04:50:29.061Z,103484.53
2023-04-20T04:52:59.369Z,103487.94
2023-04-20T04:55:27.221Z,103481.84
2023-04-20T04:57:55.088Z,103484.41
2023-04-20T05:00:23.531Z,103480.09
2023-04-20T05:02:53.052Z,103485.25
2023-04-20T05:05:21.074Z,103486.16
2023-04-20T05:07:50.360Z,103482.72
2023-04-20T05:10:18.467Z,103485.31
2023-04-20T05:12:46.422Z,103484.50
2023-04-20T05:15:14.510Z,103486.22
2023-04-20T05:17:42.502Z,103480.19
2023-04-20T05:20:11.998Z,103487.97
2023-04-20T05:22:39.862Z,103481.94
2023-04-20T05:25:12.619Z,103474.16
2023-04-20T05:27:41.636Z,103480.22
2023-04-20T05:30:20.440Z,103475.94
2023-04-20T05:32:51.947Z,103469.00
2023-04-20T05:35:20.045Z,103474.09
2023-04-20T05:37:48.506Z,103467.50
2023-04-20T05:40:17.877Z,103458.50
2023-04-20T05:42:45.755Z,103460.75
2023-04-20T05:45:13.709Z,103460.41
2023-04-20T05:47:41.657Z,103457.56
2023-04-20T05:50:10.932Z,103459.94
2023-04-20T05:52:38.846Z,103452.22
2023-04-20T05:55:07.633Z,103443.81
2023-04-20T05:57:42.724Z,103445.97
2023-04-20T06:00:12.377Z,103444.81
2023-04-20T06:02:40.820Z,103432.56
2023-04-20T06:05:10.601Z,103440.00
2023-04-20T06:07:39.167Z,103443.91
2023-04-20T06:10:08.611Z,103436.69
2023-04-20T06:12:38.340Z,103441.16
2023-04-20T06:15:08.533Z,103433.59
2023-04-20T06:17:37.499Z,103438.41
2023-04-20T06:20:06.940Z,103443.91
2023-04-20T06:22:34.954Z,103440.75
2023-04-20T06:25:02.989Z,103435.69
2023-04-20T06:27:31.048Z,103429.78
2023-04-20T06:30:00.341Z,103429.16
2023-04-20T06:32:28.394Z,103432.25
2023-04-20T06:34:56.466Z,103437.56
2023-04-20T06:37:24.391Z,103433.09
2023-04-20T06:39:54.571Z,103440.13
2023-04-20T06:42:22.777Z,103433.53
2023-04-20T06:44:50.847Z,103433.97
2023-04-20T06:47:20.847Z,103431.06
2023-04-20T06:49:48.888Z,103440.00
2023-04-20T06:52:16.830Z,103430.28
2023-04-20T06:54:44.723Z,103441.09
2023-04-20T06:57:12.632Z,103433.81
2023-04-20T06:59:40.423Z,103432.59
2023-04-20T07:02:08.728Z,103432.38
2023-04-20T07:04:38.244Z,103432.00
2023-04-20T07:07:06.391Z,103429.13
2023-04-20T07:09:34.306Z,103427.41
2023-04-20T07:12:02.653Z,103423.59
2023-04-20T07:14:30.476Z,103423.78
2023-04-20T07:16:58.321Z,103429.22
2023-04-20T07:19:26.251Z,103422.81
2023-04-20T07:21:55.557Z,103430.69
2023-04-20T07:24:23.690Z,103430.13
2023-04-20T07:26:51.618Z,103422.41
2023-04-20T07:29:19.808Z,103423.41
2023-04-20T07:31:47.935Z,103419.78
2023-04-20T07:34:16.018Z,103424.53
2023-04-20T07:36:44.220Z,103418.94
2023-04-20T07:39:13.460Z,103420.50
2023-04-20T07:41:41.403Z,103423.00
2023-04-20T07:44:09.238Z,103420.03
2023-04-20T07:46:37.308Z,103416.59
2023-04-20T07:49:05.234Z,103422.25
2023-04-20T07:51:34.408Z,103421.00
2023-04-20T07:54:02.368Z,103415.63
2023-04-20T07:56:32.165Z,103415.59
2023-04-20T07:59:00.638Z,103419.31
2023-04-20T08:01:28.532Z,103411.38
2023-04-20T08:03:56.913Z,103411.97
2023-04-20T08:06:24.993Z,103405.63
2023-04-20T08:08:53.182Z,103407.25
2023-04-20T08:11:21.746Z,103405.41
2023-04-20T08:13:51.165Z,103400.06
2023-04-20T08:16:19.416Z,103397.44
2023-04-20T08:18:47.421Z,103402.69
2023-04-20T08:21:15.445Z,103401.44
2023-04-20T08:23:43.434Z,103397.78
2023-04-20T08:26:16.040Z,103384.81
2023-04-20T08:28:44.958Z,103387.56
2023-04-20T08:31:14.946Z,103383.84
2023-04-20T08:33:43.057Z,103377.41
2023-04-20T08:36:11.627Z,103378.00
2023-04-20T08:38:39.633Z,103377.16
2023-04-20T08:41:07.901Z,103380.34
2023-04-20T08:43:37.052Z,103380.22
2023-04-20T08:46:05.365Z,103379.00
2023-04-20T08:48:36.684Z,103382.56
2023-04-20T08:51:05.078Z,103370.34
2023-04-20T08:53:33.499Z,103375.22
2023-04-20T08:56:01.507Z,103378.63
2023-04-20T08:58:31.572Z,103368.56
2023-04-20T09:01:00.741Z,103369.50
2023-04-20T09:03:38.403Z,103371.50
2023-04-20T09:06:07.114Z,103368.41
2023-04-20T09:08:40.366Z,103362.59
2023-04-20T09:11:08.738Z,103364.47
2023-04-20T09:13:36.714Z,103362.59
2023-04-20T09:16:12.070Z,103358.59
2023-04-20T09:18:41.360Z,103359.41
2023-04-20T09:21:10.322Z,103355.78
2023-04-20T09:23:38.623Z,103348.81
2023-04-20T09:26:06.811Z,103349.59
2023-04-20T09:28:39.698Z,103338.22
2023-04-20T09:31:08.138Z,103344.34
2023-04-20T09:33:37.615Z,103340.91
2023-04-20T09:36:07.417Z,103342.16
2023-04-20T09:38:35.386Z,103339.72
2023-04-20T09:41:03.439Z,103335.19
2023-04-20T09:43:31.880Z,103336.09
2023-04-20T09:46:01.016Z,103336.75
2023-04-20T09:48:30.816Z,103322.69
2023-04-20T09:51:03.476Z,103319.91
2023-04-20T09:53:34.267Z,103314.00
2023-04-20T09:56:03.496Z,103314.94
2023-04-20T09:58:33.684Z,103319.13
2023-04-20T10:01:02.612Z,103314.94
2023-04-20T10:03:30.671Z,103308.81
2023-04-20T10:05:59.414Z,103312.97
2023-04-20T10:08:27.251Z,103306.69
2023-04-20T10:10:56.570Z,103305.00
2023-04-20T10:13:34.403Z,103293.66
2023-04-20T10:16:02.374Z,103294.16
2023-04-20T10:18:30.436Z,103290.00
2023-04-20T10:21:07.094Z,103286.41
2023-04-20T10:23:34.982Z,103286.41
2023-04-20T10:26:04.496Z,103283.13
2023-04-20T10:28:40.757Z,103279.72
2023-04-20T10:31:13.056Z,103278.81
2023-04-20T10:33:50.928Z,103278.81
2023-04-20T10:36:28.470Z,103281.53
2023-04-20T10:38:56.929Z,103274.28
2023-04-20T10:41:26.446Z,103270.88
2023-04-20T10:43:54.382Z,103262.72
2023-04-20T10:46:24.099Z,103265.16
2023-04-20T10:48:56.743Z,103263.13
2023-04-20T10:51:25.142Z,103256.91
2023-04-20T10:54:05.085Z,103250.28
2023-04-20T10:56:42.013Z,103255.97
2023-04-20T10:59:10.573Z,103247.91
2023-04-20T11:01:39.093Z,103244.31
2023-04-20T11:04:07.341Z,103247.22
2023-04-20T11:06:35.806Z,103231.13
2023-04-20T11:09:04.400Z,103237.78
2023-04-20T11:11:32.297Z,103229.53
2023-04-20T11:14:12.184Z,103218.66
2023-04-20T11:16:51.380Z,103234.50
2023-04-20T11:19:25.830Z,103222.13
2023-04-20T11:21:53.741Z,103224.63
2023-04-20T11:24:22.276Z,103219.50
2023-04-20T11:26:51.085Z,103212.94
2023-04-20T11:29:30.752Z,103210.91
2023-04-20T11:31:59.290Z,103210.66
2023-04-20T11:34:27.455Z,103212.69
2023-04-20T11:36:56.778Z,103209.22
2023-04-20T11:39:25.686Z,103200.91
2023-04-20T11:41:54.057Z,103198.63
2023-04-20T11:44:22.313Z,103190.16
2023-04-20T11:46:53.403Z,103195.97
2023-04-20T11:49:21.913Z,103192.31
2023-04-20T11:51:50.104Z,103184.69
2023-04-20T11:54:19.019Z,103181.28
2023-04-20T11:56:47.345Z,103181.88
2023-04-20T11:59:17.173Z,103180.97
2023-04-20T12:01:45.348Z,103180.41
2023-04-20T12:04:15.328Z,103175.50
2023-04-20T12:06:43.528Z,103169.72
2023-04-20T12:09:11.357Z,103173.22
2023-04-20T12:11:39.192Z,103171.00
2023-04-20T12:14:07.102Z,103168.19
2023-04-20T12:16:34.981Z,103164.00
2023-04-20T12:19:03.455Z,103155.50
2023-04-20T12:21:33.078Z,103149.50
2023-04-20T12:24:01.086Z,103146.41
2023-04-20T12:26:37.234Z,103137.16
2023-04-20T12:29:07.198Z,103138.09
2023-04-20T12:31:35.616Z,103137.34
2023-04-20T12:34:04.054Z,103128.31
2023-04-20T12:36:35.067Z,103126.31
2023-04-20T12:39:04.223Z,103119.31
2023-04-20T12:41:33.200Z,103114.13
2023-04-20T12:44:03.482Z,103111.66
2023-04-20T12:46:33.367Z,103115.25
2023-04-20T12:49:01.284Z,103110.56
2023-04-20T12:51:29.764Z,103101.72
2023-04-20T12:53:59.122Z,103102.06
2023-04-20T12:56:27.073Z,103101.66
2023-04-20T12:58:55.093Z,103101.50
2023-04-20T13:01:23.073Z,103099.06
2023-04-20T13:03:52.462Z,103098.09
2023-04-20T13:06:20.625Z,103092.25
2023-04-20T13:08:48.717Z,103093.56
2023-04-20T13:11:18.350Z,103085.34
2023-04-20T13:13:46.270Z,103080.97
2023-04-20T13:16:14.403Z,103075.59
2023-04-20T13:18:42.359Z,103081.84
2023-04-20T13:21:10.391Z,103080.31
2023-04-20T13:23:39.965Z,103070.13
2023-04-20T13:26:08.587Z,103065.78
2023-04-20T13:28:38.118Z,103074.28
2023-04-20T13:31:06.375Z,103062.16
2023-04-20T13:33:34.462Z,103061.59
2023-04-20T13:36:02.531Z,103055.84
2023-04-20T13:38:30.568Z,103052.34
2023-04-20T13:40:58.532Z,103053.50
2023-04-20T13:43:26.786Z,103045.72
2023-04-20T13:45:56.164Z,103048.94
2023-04-20T13:48:24.094Z,103044.47
2023-04-20T13:50:54.039Z,103040.13
2023-04-20T13:53:22.039Z,103033.06
2023-04-20T13:55:49.909Z,103036.19
2023-04-20T13:58:17.801Z,103035.13
2023-04-20T14:00:46.335Z,103033.53
2023-04-20T14:03:15.988Z,103025.41
2023-04-20T14:05:44.859Z,103027.94
2023-04-20T14:08:13.665Z,103028.03
2023-04-20T14:10:42.384Z,103027.66
2023-04-20T14:13:10.337Z,103018.34
2023-04-20T14:15:38.311Z,103016.63
2023-04-20T14:18:06.333Z,103024.59
2023-04-20T14:20:36.167Z,103012.97
2023-04-20T14:23:04.055Z,103008.34
2023-04-20T14:25:31.981Z,103009.84
2023-04-20T14:28:00.016Z,103011.75
2023-04-20T14:30:28.308Z,103004.22
2023-04-20T14:32:57.343Z,103004.09
2023-04-20T14:35:26.135Z,102999.16
2023-04-20T14:37:55.581Z,102994.03
2023-04-20T14:40:23.572Z,102995.25
2023-04-20T14:42:51.423Z,102998.25
2023-04-20T14:45:19.319Z,102979.81
2023-04-20T14:47:47.252Z,102986.91
2023-04-20T14:50:15.499Z,102979.66
2023-04-20T14:52:43.439Z,102978.50
2023-04-20T14:55:12.736Z,102975.84
2023-04-20T14:57:40.584Z,102976.09
2023-04-20T15:00:10.662Z,102967.53
2023-04-20T15:02:38.756Z,102967.72
2023-04-20T15:05:10.330Z,102974.34
2023-04-20T15:07:38.915Z,102966.22
2023-04-20T15:10:07.374Z,102961.47
2023-04-20T15:12:36.669Z,102958.81
2023-04-20T15:15:04.913Z,102956.06
2023-04-20T15:17:32.884Z,102955.41
2023-04-20T15:20:00.787Z,102954.09
2023-04-20T15:22:28.638Z,102952.00
2023-04-20T15:24:56.478Z,102954.28
2023-04-20T15:27:24.426Z,102948.22
2023-04-20T15:29:53.774Z,102947.38
2023-04-20T15:32:21.800Z,102942.38
2023-04-20T15:34:50.290Z,102953.72
2023-04-20T15:37:18.219Z,102949.28
2023-04-20T15:39:46.437Z,102946.75
2023-04-20T15:42:14.804Z,102938.78
2023-04-20T15:44:42.649Z,102942.06
2023-04-20T15:47:12.178Z,102943.88
2023-04-20T15:49:40.732Z,102941.78
2023-04-20T15:52:08.796Z,102936.19
2023-04-20T15:54:36.982Z,102932.34
2023-04-20T15:57:05.026Z,102935.19
2023-04-20T15:59:33.295Z,102935.94
2023-04-20T16:02:01.240Z,102933.28
2023-04-20T16:04:30.746Z,102928.59
2023-04-20T16:06:58.692Z,102930.69
2023-04-20T16:09:26.657Z,102926.53
2023-04-20T16:11:54.734Z,102928.53
2023-04-20T16:14:22.603Z,102927.59
2023-04-20T16:16:50.870Z,102920.88
2023-04-20T16:19:18.730Z,102917.91
2023-04-20T16:21:48.300Z,102918.50
2023-04-20T16:24:16.770Z,102923.41
2023-04-20T16:26:45.152Z,102915.31
2023-04-20T16:29:13.177Z,102911.34
2023-04-20T16:31:41.150Z,102912.88
2023-04-20T16:34:09.130Z,102912.88
2023-04-20T16:36:36.946Z,102907.19
2023-04-20T16:39:06.915Z,102909.34
2023-04-20T16:41:34.903Z,102904.53
2023-04-20T16:44:02.938Z,102898.59
2023-04-20T16:46:31.988Z,102903.22
2023-04-20T16:49:00.204Z,102905.00
2023-04-20T16:51:29.265Z,102901.41
2023-04-20T16:53:57.653Z,102898.38
2023-04-20T16:56:27.008Z,102896.50
2023-04-20T16:58:58.340Z,102898.59
2023-04-20T17:01:26.366Z,102894.88
2023-04-20T17:03:54.369Z,102888.78
2023-04-20T17:06:22.449Z,102886.22
2023-04-20T17:08:50.391Z,102889.25
2023-04-20T17:11:19.465Z,102886.09
2023-04-20T17:13:48.716Z,102888.03
2023-04-20T17:16:16.639Z,102890.19
2023-04-20T17:18:44.733Z,102885.84
2023-04-20T17:21:12.650Z,102887.72
2023-04-20T17:23:41.203Z,102889.59
2023-04-20T17:26:10.260Z,102878.56
2023-04-20T17:28:38.271Z,102878.06
2023-04-20T17:31:07.807Z,102877.63
2023-04-20T17:33:35.808Z,102868.16
2023-04-20T17:36:03.787Z,102865.31
2023-04-20T17:38:36.474Z,102868.31
2023-04-20T17:41:04.933Z,102867.16
2023-04-20T17:43:32.888Z,102864.50
2023-04-20T17:46:00.857Z,102867.69
2023-04-20T17:48:30.223Z,102862.44
2023-04-20T17:50:58.840Z,102871.13
2023-04-20T17:53:27.112Z,102860.50
2023-04-20T17:55:55.107Z,102868.78
2023-04-20T17:58:23.458Z,102869.97
2023-04-20T18:00:51.616Z,102872.03
2023-04-20T18:03:20.067Z,102872.56
2023-04-20T18:05:49.601Z,102878.34
2023-04-20T18:08:17.750Z,102889.06
2023-04-20T18:10:45.699Z,102892.78
2023-04-20T18:13:13.710Z,102893.34
2023-04-20T18:15:41.719Z,102892.06
2023-04-20T18:18:09.641Z,102894.06
2023-04-20T18:20:37.496Z,102896.16
2023-04-20T18:23:07.018Z,102897.72
2023-04-20T18:25:34.949Z,102899.56
2023-04-20T18:28:02.944Z,102905.59
2023-04-20T18:30:30.919Z,102901.25
2023-04-20T18:32:58.849Z,102903.88
2023-04-20T18:35:27.122Z,102900.28
2023-04-20T18:37:55.240Z,102904.31
2023-04-20T18:40:24.511Z,102905.19
2023-04-20T18:42:52.532Z,102910.44
2023-04-20T18:45:21.839Z,102908.09
2023-04-20T18:47:49.807Z,102910.44
2023-04-20T18:50:17.790Z,102909.88
2023-04-20T18:52:45.688Z,102908.00
2023-04-20T18:55:13.701Z,102905.03
2023-04-20T18:57:43.130Z,102913.38
2023-04-20T19:00:11.824Z,102912.00
2023-04-20T19:02:39.890Z,102910.72
2023-04-20T19:05:08.457Z,102910.22
2023-04-20T19:07:36.429Z,102908.03
2023-04-20T19:10:04.649Z,102897.28
2023-04-20T19:12:33.696Z,102908.50
2023-04-20T19:15:03.792Z,102909.16
2023-04-20T19:17:32.176Z,102903.69
2023-04-20T19:20:00.189Z,102902.47
2023-04-20T19:22:28.453Z,102909.94
2023-04-20T19:24:56.348Z,102902.50
2023-04-20T19:27:24.261Z,102906.25
2023-04-20T19:29:53.130Z,102902.22
2023-04-20T19:32:22.584Z,102905.41
2023-04-20T19:34:52.350Z,102907.19
2023-04-20T19:37:20.291Z,102902.41
2023-04-20T19:39:48.196Z,102905.19
2023-04-20T19:42:16.357Z,102907.09
2023-04-20T19:44:44.267Z,102909.94
2023-04-20T19:47:12.430Z,102910.97
2023-04-20T19:49:42.015Z,102895.69
2023-04-20T19:52:09.905Z,102906.56
2023-04-20T19:54:38.052Z,102907.66
2023-04-20T19:57:06.029Z,102908.91
2023-04-20T19:59:33.952Z,102911.91
2023-04-20T20:02:02.053Z,102908.84
2023-04-20T20:04:31.736Z,102912.09
2023-04-20T20:07:01.487Z,102908.78
2023-04-20T20:09:29.382Z,102907.41
2023-04-20T20:11:57.359Z,102910.13
2023-04-20T20:14:25.176Z,102904.47
2023-04-20T20:16:53.168Z,102907.34
2023-04-20T20:19:22.412Z,102903.03
2023-04-20T20:21:50.643Z,102899.75
2023-04-20T20:24:22.848Z,102902.72
2023-04-20T20:26:50.846Z,102906.69
2023-04-20T20:29:18.926Z,102902.81
2023-04-20T20:31:47.125Z,102905.47
2023-04-20T20:34:15.020Z,102901.34
2023-04-20T20:36:44.863Z,102898.13
2023-04-20T20:39:13.649Z,102895.91
2023-04-20T20:41:43.431Z,102899.72
2023-04-20T20:44:11.671Z,102904.34
2023-04-20T20:46:39.969Z,102904.53
2023-04-20T20:49:08.026Z,102902.19
2023-04-20T20:51:35.995Z,102905.03
2023-04-20T20:54:03.904Z,102895.69
2023-04-20T20:56:31.812Z,102897.59
2023-04-20T20:59:01.077Z,102897.78
2023-04-20T21:01:29.009Z,102898.69
2023-04-20T21:03:57.045Z,102896.22
2023-04-20T21:06:24.891Z,102906.84
2023-04-20T21:08:52.769Z,102894.03
2023-04-20T21:11:20.615Z,102894.94
2023-04-20T21:13:48.572Z,102904.59
2023-04-20T21:16:17.936Z,102899.50
2023-04-20T21:18:45.843Z,102898.94
2023-04-20T21:21:13.794Z,102888.91
2023-04-20T21:23:41.858Z,102889.22
2023-04-20T21:26:09.781Z,102884.44
2023-04-20T21:28:37.693Z,102886.72
2023-04-20T21:31:05.962Z,102880.69
2023-04-20T21:33:36.284Z,102883.22
2023-04-20T21:36:04.104Z,102880.75
2023-04-20T21:38:32.171Z,102883.16
2023-04-20T21:41:00.174Z,102880.72
2023-04-20T21:43:28.100Z,102876.53
2023-04-20T21:45:56.013Z,102880.91
2023-04-20T21:48:23.954Z,102871.34
2023-04-20T21:50:53.209Z,102873.88
2023-04-20T21:53:21.278Z,102866.34
2023-04-20T21:55:49.203Z,102866.47
2023-04-20T21:58:17.033Z,102873.63
2023-04-20T22:00:44.883Z,102863.38
2023-04-20T22:03:12.860Z,102869.56
2023-04-20T22:05:40.964Z,102872.28
2023-04-20T22:08:10.697Z,102867.28
2023-04-20T22:10:38.531Z,102868.25
2023-04-20T22:13:06.483Z,102865.59
2023-04-20T22:15:34.492Z,102870.78
2023-04-20T22:18:04.023Z,102862.16
2023-04-20T22:20:32.275Z,102860.53
2023-04-20T22:23:00.146Z,102855.38
2023-04-20T22:25:29.415Z,102850.47
2023-04-20T22:27:57.365Z,102851.41
2023-04-20T22:30:25.260Z,102852.28
2023-04-20T22:32:53.338Z,102851.44
2023-04-20T22:35:21.298Z,102853.25
2023-04-20T22:37:49.186Z,102855.16
2023-04-20T22:40:17.062Z,102845.63
2023-04-20T22:42:46.371Z,102846.50
2023-04-20T22:45:14.213Z,102848.34
2023-04-20T22:47:42.313Z,102847.56
2023-04-20T22:50:12.397Z,102849.34
2023-04-20T22:52:40.499Z,102845.97
2023-04-20T22:55:10.242Z,102847.81
2023-04-20T22:57:39.061Z,102841.84
2023-04-20T23:00:10.909Z,102841.09
2023-04-20T23:02:39.116Z,102842.19
2023-04-20T23:05:08.143Z,102844.00
2023-04-20T23:07:36.367Z,102837.94
2023-04-20T23:10:06.211Z,102837.13
2023-04-20T23:12:34.345Z,102839.81
2023-04-20T23:15:02.357Z,102841.56
2023-04-20T23:17:32.312Z,102839.06
2023-04-20T23:20:00.256Z,102839.09
2023-04-20T23:22:28.146Z,102833.91
2023-04-20T23:24:57.403Z,102828.84
2023-04-20T23:27:25.295Z,102831.56
2023-04-20T23:29:53.173Z,102828.13
2023-04-20T23:32:21.190Z,102831.59
2023-04-20T23:34:50.512Z,102827.28
2023-04-20T23:37:18.358Z,102830.00
2023-04-20T23:39:46.274Z,102827.47
2023-04-20T23:42:14.161Z,102828.44
2023-04-20T23:44:42.161Z,102821.59
2023-04-20T23:47:10.499Z,102822.47
2023-04-20T23:49:38.363Z,102819.94
2023-04-20T23:52:07.744Z,102813.94
2023-04-20T23:54:35.711Z,102819.22
2023-04-20T23:57:03.783Z,102818.38
2023-04-20T23:59:31.762Z,102812.31
